Terminal Aerodrome Forecast
Issued by NWS

Home | Current Version | Previous Version | Text Only | Print | Product List | Glossary On
Versions: 1 2 3 4 5 6 7 8 9 10 11 12 13 14 15 16 17 18 19 20 21 22 23 24 25 26 27 28 29 30 31 32 33 34 35 36 37 38
000
FTUS44 KBMX 011700 CCA
TAFASN
TAF COR
KASN 011757Z 0118/0218 17010KT 6SM -RA BR SCT007 BKN015
     FM012100 17008KT P6SM SCT007 BKN015
     FM020200 21009KT 5SM -RA BR OVC015
     FM020700 27009G15KT P6SM OVC025=

USA.gov is the U.S. government's official web portal to all federal, state and local government web resources and services.